Etusivu
METAR-TAF:

METAR-TAF

Lentoasemat :

Farnborough, Englanti

Leveyspiiri: 51-17N, Pituuspiiri: 000-46W, korkeus merenpinnasta: 65 m

Tämänhetkinen sää

Tämä raportti tehtiin 59 minuuttia sitten, kello 17.50 UTC
Tuuli 11 kn etelästä/lounaasta
Lämpötila 11°C
Kosteus 71%
Ilmanpaine 1016 hPa
Näkyvyys 10 km tai enemmän
Hajanaisia pilviä 4500 ft:n korkeudessa

METAR: EGLF 261750Z 21011KT 9999 SCT045 11/06 Q1016

Aika: 19:49 (18:49 UTC)

Sääennuste

Tämä raportti tehtiin 1 tunti ja 45 minuuttia sitten, kello 17.04 UTC
Ennuste voimassa 26. päivästä klo 18 UTC - 26. päivään klo 21 UTC
Tuuli 14 kn lännestä/lounaasta
Näkyvyys 10 km tai enemmän
Hajanaisia pilviä 3000 ft:n korkeudessa
Todennäköisyys 30% :
Ajoittain
26. päivästä klo 18 UTC - 26. päivään klo 20 UTC
Näkyvyys: 8000 m
heikkoja vesikuuroja

TAF: EGLF 261704Z 2618/2621 25014KT 9999 SCT030 PROB30 TEMPO 2618/2620 8000 -SHRA

Säähavainnot ja -ennusteet yli 4000 lentoasemalta (METAR- ja TAF-raportit).

Käytössä olevat sääasemat on merkitty karttaan keltaisilla ja punaisilla pisteillä.

Aseta hiiri pisteen päälle nähdäksesi sääaseman nimen.

Klikkaa sitten nähdäksesi säähavainnot ja -ennusteet.

Kartan vaihtaminen: klikkaa mustalla rastilla varustettuja vihreitä pisteitä, niin voit zoomata sisään; viivalla varustettua vihreää pistettä, niin voit zoomata ulos tai vihreitä nuolia, niin pääset viereisille kartoille.


METAR-TAF: